SBSNSBPJ

Guest
Details From SBSN - SANTAREM
To SBPJ - Tocantins
Flight Number -
Tags decoded
Created
Modified
Stats Distance 609 nm / 1,128 km
Max Altitude 0 ft / 0 m
Waypoints 3
Social Downloads 0
Likes 0
Share VATSIM

Download

Looking for another format? Having issues loading an existing format? Contact us
Advertisement - Login to hide

Notes

Requested: SBSN EKUGI UZ52 KODPU UZ9 KOKNI UZ43 DENOB SBPJ Unmatched points: EKUGI UZ52 KODPU UZ9 KOKNI UZ43

Route

SBSN DENOB SBPJ

ID Type Via Altitude Latitude Longitude Leg Dist Tot Dist Heading (true) Name
O SBSN APT - 0 ft / 0 m -2.42243˚ -54.79279˚ - 0 nm - SANTAREM
DENOB FIX - 0 ft / 0 m -9.83600˚ -48.62950˚ 577 nm 577 nm 141° / 140° -
O SBPJ APT - 0 ft / 0 m -10.29152˚ -48.35697˚ 31 nm 609 nm 150° / 149° Tocantins

Altitude Profile

Advertisement - Login to hide

Weather


0- 5 10 15 20 25 30 35+ Temperature / ° C

Clouds and Precipitation
Forecast for 2018-05-24 00:00 UTC. Updated 5 hours ago

Ground ~20,000 ft ~40,000 ft Winds

SBSN

Details ICAO SBSN (STM)
Name SANTAREM
Region Brazil
Timezone America/Santarem (UTC-3.0)
Stats Elevation 198 ft / 60 m (AMSL)
Location -2.422430° -54.792788°
Runways 1
Magnetic Variation 18.379° W

METAR

SBSN 240300Z 00000KT 9999 FEW017 SCT100 24/24 Q1014

Decode

TAF

TAF SBSN 232200Z 2400/2424 03003KT 9999 FEW017 TN24/2406Z TX30/2417Z PROB30 TEMPO 2407/2410 13005KT TS FEW015 FEW025CB BECMG 2411/2413 08008KT SCT017 BECMG 2415/2417 05010KT SCT020 FEW025TCU RMK PEN

Decode

Departure Runways

ID Width Length Bearing (true) Bearing (mag) Surface Threshold Offset Overrun Length
10 148 ft / 45 m 7,873 ft / 2,400 m 80.69° 99.07° Asphalt 0 ft / 0 m 245 ft / 75 m
28 148 ft / 45 m 7,873 ft / 2,400 m 260.69° 279.07° Asphalt 0 ft / 0 m 202 ft / 62 m

SBPJ

Details ICAO SBPJ (PMW)
Name Tocantins
Region Brazil
Timezone America/Araguaina (UTC-3.0)
Stats Elevation 774 ft / 236 m (AMSL)
Location -10.291524° -48.356972°
Runways 1
Magnetic Variation 21.285° W

METAR

Not found

TAF

TAF SBPJ 232200Z 2400/2412 16003KT CAVOK TN24/2307Z TX30/2412Z BECMG 2406/2408 14004KT RMK PDS

Decode

Destination Runways

ID Width Length Bearing (true) Bearing (mag) Surface Threshold Offset Overrun Length
14 148 ft / 45 m 8,194 ft / 2,497 m 124.06° 145.35° Asphalt 0 ft / 0 m 0 ft / 0 m
32 148 ft / 45 m 8,194 ft / 2,497 m 304.06° 325.35° Asphalt 0 ft / 0 m 0 ft / 0 m

Popular Alternatives